Time;durP1;ratioP1;P1;durP2;ratioP2;P2;SDS_P1;SDS_P2;PMS_P1;PMS_P2;Temp;Humidity;BMP_temperature;BMP_pressure;BME280_temperature;BME280_humidity;BME280_pressure;Samples;Min_cycle;Max_cycle;Signal;HPM_P1;HPM_P2
2023/02/06 00:00:22;;;;;;;14.20;9.55;;;;;;;;;;10433217;28;20033;-74
2023/02/06 00:05:22;;;;;;;16.75;9.40;;;;;;;;;;10449483;28;20032;-74
2023/02/06 00:10:22;;;;;;;13.27;11.00;;;;;;;;;;10450105;28;20487;-76
2023/02/06 00:15:23;;;;;;;13.27;9.15;;;;;;;;;;10449495;28;20449;-73
2023/02/06 00:20:23;;;;;;;14.63;9.73;;;;;;;;;;10421574;28;20479;-73
2023/02/06 00:25:23;;;;;;;16.23;9.48;;;;;;;;;;10448042;28;20035;-72
2023/02/06 00:30:24;;;;;;;13.60;8.25;;;;;;;;;;10448638;28;20506;-74
2023/02/06 00:35:24;;;;;;;15.13;9.97;;;;;;;;;;10448671;28;20025;-77
2023/02/06 00:40:24;;;;;;;11.13;8.60;;;;;;;;;;10448344;28;20036;-73
2023/02/06 00:45:24;;;;;;;16.92;9.00;;;;;;;;;;10448245;28;20025;-78
2023/02/06 00:50:25;;;;;;;12.90;8.95;;;;;;;;;;10447211;28;20032;-73
2023/02/06 00:55:25;;;;;;;9.37;7.43;;;;;;;;;;10446100;28;20082;-73
2023/02/06 01:00:25;;;;;;;14.15;12.15;;;;;;;;;;10460924;28;20036;-78
2023/02/06 01:05:26;;;;;;;14.32;8.57;;;;;;;;;;10447447;28;20124;-73
2023/02/06 01:10:26;;;;;;;11.05;8.90;;;;;;;;;;10447235;28;20040;-76
2023/02/06 01:15:26;;;;;;;13.67;10.07;;;;;;;;;;10424542;28;20502;-77
2023/02/06 01:20:27;;;;;;;10.07;7.95;;;;;;;;;;10445690;28;20037;-73
2023/02/06 01:25:27;;;;;;;8.73;7.18;;;;;;;;;;10446657;28;20033;-73
2023/02/06 01:30:27;;;;;;;7.85;6.70;;;;;;;;;;10429666;28;20033;-72
2023/02/06 01:35:28;;;;;;;11.27;5.90;;;;;;;;;;10446512;28;20036;-73
2023/02/06 01:40:28;;;;;;;9.02;5.40;;;;;;;;;;10445938;28;20036;-75
2023/02/06 01:45:34;;;;;;;10.30;6.43;;;;;;;;;;10447217;28;20029;-74
2023/02/06 01:50:36;;;;;;;10.30;6.68;;;;;;;;;;10444691;28;20021;-76
2023/02/06 01:55:38;;;;;;;9.07;5.20;;;;;;;;;;10445692;28;20021;-77
2023/02/06 02:00:38;;;;;;;9.50;6.07;;;;;;;;;;10445347;28;20021;-74
2023/02/06 02:05:39;;;;;;;9.50;6.20;;;;;;;;;;10430772;28;20191;-76
2023/02/06 02:10:39;;;;;;;7.72;5.85;;;;;;;;;;10440157;28;20036;-77
2023/02/06 02:15:43;;;;;;;8.32;6.57;;;;;;;;;;10444759;28;20547;-73
2023/02/06 02:21:02;;;;;;;7.90;5.32;;;;;;;;;;10427386;28;20454;-75
2023/02/06 02:26:12;;;;;;;6.65;5.22;;;;;;;;;;10439420;28;20029;-77
2023/02/06 02:31:16;;;;;;;11.85;6.55;;;;;;;;;;10453661;28;20024;-79
2023/02/06 02:36:28;;;;;;;5.28;4.78;;;;;;;;;;10453182;28;20021;-73
2023/02/06 02:41:29;;;;;;;9.18;5.53;;;;;;;;;;10454749;28;20477;-71
2023/02/06 02:46:42;;;;;;;9.50;5.65;;;;;;;;;;10453097;28;20112;-73
2023/02/06 02:51:42;;;;;;;10.38;6.68;;;;;;;;;;10436676;28;20013;-72
2023/02/06 02:56:43;;;;;;;11.43;7.75;;;;;;;;;;10454425;28;20029;-77
2023/02/06 03:01:47;;;;;;;9.27;6.85;;;;;;;;;;10451866;28;20100;-75
2023/02/06 03:06:47;;;;;;;6.95;6.25;;;;;;;;;;10452213;28;20052;-76
2023/02/06 03:12:01;;;;;;;12.18;8.00;;;;;;;;;;10453646;28;20040;-78
2023/02/06 03:17:08;;;;;;;10.98;6.28;;;;;;;;;;10451540;28;20350;-75
2023/02/06 03:22:09;;;;;;;8.35;5.97;;;;;;;;;;10450616;28;20061;-74
2023/02/06 03:27:11;;;;;;;9.48;6.10;;;;;;;;;;10450505;28;20112;-74
2023/02/06 03:32:18;;;;;;;11.95;7.40;;;;;;;;;;10448661;28;20106;-74
2023/02/06 03:37:19;;;;;;;6.60;5.40;;;;;;;;;;10425742;28;20482;-72
2023/02/06 03:42:21;;;;;;;8.65;5.20;;;;;;;;;;10447626;28;20029;-81
2023/02/06 03:47:23;;;;;;;7.22;6.10;;;;;;;;;;10448580;28;20024;-77
2023/02/06 03:52:25;;;;;;;15.07;7.28;;;;;;;;;;10450684;28;20025;-76
2023/02/06 03:57:26;;;;;;;8.88;5.55;;;;;;;;;;10431936;28;20114;-75
2023/02/06 04:02:27;;;;;;;9.20;5.05;;;;;;;;;;10446506;28;20376;-72
2023/02/06 04:07:29;;;;;;;9.90;6.00;;;;;;;;;;10448644;28;20048;-76
2023/02/06 04:12:30;;;;;;;7.53;5.15;;;;;;;;;;10447149;28;20029;-74
2023/02/06 04:17:30;;;;;;;7.18;4.95;;;;;;;;;;10448616;28;20017;-81
2023/02/06 04:22:30;;;;;;;13.07;6.53;;;;;;;;;;10445811;28;20436;-78
2023/02/06 04:27:31;;;;;;;11.47;5.77;;;;;;;;;;10446651;28;20025;-74
2023/02/06 04:32:31;;;;;;;9.05;6.28;;;;;;;;;;10447083;28;20029;-76
2023/02/06 04:37:32;;;;;;;7.17;4.30;;;;;;;;;;10446679;28;20021;-78
2023/02/06 04:42:32;;;;;;;7.80;4.50;;;;;;;;;;10435166;28;20009;-77
2023/02/06 04:47:32;;;;;;;10.03;6.20;;;;;;;;;;10438436;28;20343;-79
2023/02/06 04:52:32;;;;;;;10.50;6.07;;;;;;;;;;10436882;28;20028;-79
2023/02/06 04:57:33;;;;;;;13.17;6.73;;;;;;;;;;10447510;28;20027;-78
2023/02/06 05:02:38;;;;;;;11.53;6.70;;;;;;;;;;10428109;28;20031;-77
2023/02/06 05:07:38;;;;;;;11.95;10.07;;;;;;;;;;10420652;28;20522;-72
2023/02/06 05:12:38;;;;;;;14.85;7.47;;;;;;;;;;10447902;28;20043;-76
2023/02/06 05:17:38;;;;;;;15.80;7.25;;;;;;;;;;10438961;28;20028;-73
2023/02/06 05:22:39;;;;;;;10.47;7.57;;;;;;;;;;10446256;28;20017;-74
2023/02/06 05:27:39;;;;;;;13.45;9.65;;;;;;;;;;10442940;28;20029;-74
2023/02/06 05:32:39;;;;;;;11.50;10.05;;;;;;;;;;10440264;28;20028;-75
2023/02/06 05:37:40;;;;;;;12.65;9.93;;;;;;;;;;10430043;28;20084;-78
2023/02/06 05:42:40;;;;;;;8.88;6.53;;;;;;;;;;10439790;28;20414;-76
2023/02/06 05:47:40;;;;;;;11.30;8.32;;;;;;;;;;10445169;28;20453;-73
2023/02/06 05:52:41;;;;;;;13.80;7.93;;;;;;;;;;10438052;28;20511;-74
2023/02/06 05:57:41;;;;;;;14.17;7.80;;;;;;;;;;10444314;28;20028;-74
2023/02/06 06:02:41;;;;;;;13.30;8.00;;;;;;;;;;10444794;28;20075;-77
2023/02/06 06:07:41;;;;;;;14.10;8.65;;;;;;;;;;10430099;28;20049;-76
2023/02/06 06:12:42;;;;;;;13.90;7.10;;;;;;;;;;10443776;28;20037;-73
2023/02/06 06:17:42;;;;;;;9.75;6.00;;;;;;;;;;10419931;28;20020;-74
2023/02/06 06:22:42;;;;;;;9.88;6.57;;;;;;;;;;10428742;28;20020;-76
2023/02/06 06:27:42;;;;;;;9.55;6.85;;;;;;;;;;10441786;28;20034;-77
2023/02/06 06:32:43;;;;;;;12.45;7.25;;;;;;;;;;10444278;28;20021;-73
2023/02/06 06:37:43;;;;;;;14.80;8.38;;;;;;;;;;10442488;28;20449;-75
2023/02/06 06:42:43;;;;;;;13.55;7.65;;;;;;;;;;10444301;28;20025;-77
2023/02/06 06:47:43;;;;;;;12.55;7.53;;;;;;;;;;10442302;28;20013;-75
2023/02/06 06:52:44;;;;;;;8.57;6.47;;;;;;;;;;10402957;28;20079;-73
2023/02/06 06:57:44;;;;;;;13.75;6.80;;;;;;;;;;10424511;28;20021;-74
2023/02/06 07:02:45;;;;;;;14.43;8.48;;;;;;;;;;10443958;28;20048;-74
2023/02/06 07:07:45;;;;;;;18.63;9.30;;;;;;;;;;10431851;28;20049;-73
2023/02/06 07:12:45;;;;;;;16.17;8.93;;;;;;;;;;10452487;28;20450;-75
2023/02/06 07:17:46;;;;;;;13.82;9.40;;;;;;;;;;10449962;28;20013;-74
2023/02/06 07:22:46;;;;;;;23.20;11.20;;;;;;;;;;10451302;28;20025;-75
2023/02/06 07:27:46;;;;;;;14.50;8.40;;;;;;;;;;10451445;28;20108;-73
2023/02/06 07:32:47;;;;;;;11.45;7.53;;;;;;;;;;10452781;28;20028;-74
2023/02/06 07:37:47;;;;;;;18.70;8.07;;;;;;;;;;10451306;28;20028;-73
2023/02/06 07:42:47;;;;;;;13.88;8.20;;;;;;;;;;10451021;28;20025;-74
2023/02/06 07:47:47;;;;;;;11.35;6.00;;;;;;;;;;10450158;28;20025;-73
2023/02/06 07:52:48;;;;;;;11.93;6.88;;;;;;;;;;10449882;28;20033;-73
2023/02/06 07:57:48;;;;;;;11.95;5.65;;;;;;;;;;10450184;28;20017;-73
2023/02/06 08:02:48;;;;;;;12.20;7.20;;;;;;;;;;10449711;28;20036;-74
2023/02/06 08:07:50;;;;;;;9.95;6.18;;;;;;;;;;10448958;28;20049;-73
2023/02/06 08:12:50;;;;;;;5.93;4.35;;;;;;;;;;10449135;28;20025;-79
2023/02/06 08:17:50;;;;;;;13.73;5.82;;;;;;;;;;10448514;28;20025;-73
2023/02/06 08:22:50;;;;;;;8.82;4.50;;;;;;;;;;10449005;28;20576;-73
2023/02/06 08:27:52;;;;;;;11.80;5.53;;;;;;;;;;10449559;28;20120;-74
2023/02/06 08:32:52;;;;;;;13.07;7.30;;;;;;;;;;10448720;28;20446;-74
2023/02/06 08:37:52;;;;;;;7.03;4.85;;;;;;;;;;10448872;28;20017;-73
2023/02/06 08:42:53;;;;;;;12.40;6.13;;;;;;;;;;10448240;28;20013;-74
2023/02/06 08:47:53;;;;;;;14.52;6.40;;;;;;;;;;10449324;28;20021;-73
2023/02/06 08:52:53;;;;;;;10.35;5.35;;;;;;;;;;10447614;28;20027;-77
2023/02/06 08:57:53;;;;;;;6.97;4.72;;;;;;;;;;10447951;28;20017;-74
2023/02/06 09:02:54;;;;;;;11.70;4.93;;;;;;;;;;10447061;28;20082;-81
2023/02/06 09:07:55;;;;;;;6.45;5.10;;;;;;;;;;10446845;28;20052;-73
2023/02/06 09:12:56;;;;;;;8.47;4.60;;;;;;;;;;10430849;28;20034;-75
2023/02/06 09:17:56;;;;;;;9.60;4.70;;;;;;;;;;10447071;28;20454;-73
2023/02/06 09:22:56;;;;;;;9.07;4.55;;;;;;;;;;10447036;28;20124;-73
2023/02/06 09:27:57;;;;;;;5.93;3.58;;;;;;;;;;10446335;28;20025;-79
2023/02/06 09:32:57;;;;;;;7.50;5.22;;;;;;;;;;10446504;28;20070;-73
2023/02/06 09:37:57;;;;;;;7.67;4.00;;;;;;;;;;10446014;28;20039;-79
2023/02/06 09:42:58;;;;;;;5.38;4.03;;;;;;;;;;10445290;28;20028;-73
2023/02/06 09:48:02;;;;;;;8.23;3.22;;;;;;;;;;10446103;28;20032;-74
2023/02/06 09:53:03;;;;;;;8.07;4.18;;;;;;;;;;10446133;28;20021;-76
2023/02/06 09:58:35;;;;;;;5.93;3.15;;;;;;;;;;10445553;28;20017;-74
2023/02/06 10:03:55;;;;;;;9.18;3.30;;;;;;;;;;10402027;28;20442;-75
2023/02/06 10:08:58;;;;;;;6.18;3.92;;;;;;;;;;10428781;28;20102;-77
2023/02/06 10:14:00;;;;;;;7.78;3.70;;;;;;;;;;10445373;28;20111;-76
2023/02/06 10:19:10;;;;;;;6.10;3.92;;;;;;;;;;10444475;28;20032;-74
2023/02/06 10:24:19;;;;;;;8.65;4.10;;;;;;;;;;10445148;28;20064;-72
2023/02/06 10:29:27;;;;;;;6.32;3.20;;;;;;;;;;10444591;28;20021;-74
2023/02/06 10:34:47;;;;;;;7.50;3.15;;;;;;;;;;10445324;28;20024;-74
2023/02/06 10:39:48;;;;;;;4.68;3.53;;;;;;;;;;10444660;28;20107;-75
2023/02/06 10:45:07;;;;;;;4.95;2.83;;;;;;;;;;10453634;28;20035;-75
2023/02/06 10:50:17;;;;;;;5.78;3.75;;;;;;;;;;10452097;28;20041;-72
2023/02/06 10:55:19;;;;;;;14.50;3.42;;;;;;;;;;10453955;28;20505;-72
2023/02/06 11:00:24;;;;;;;7.63;3.03;;;;;;;;;;10451745;28;20407;-74
2023/02/06 11:05:25;;;;;;;10.50;3.08;;;;;;;;;;10452397;28;20112;-74
2023/02/06 11:10:26;;;;;;;15.80;3.67;;;;;;;;;;10451836;28;20056;-77
2023/02/06 11:15:31;;;;;;;8.60;3.85;;;;;;;;;;10451689;28;20124;-74
2023/02/06 11:20:34;;;;;;;4.97;3.00;;;;;;;;;;10451444;28;20021;-75
2023/02/06 11:25:34;;;;;;;9.45;3.03;;;;;;;;;;10451964;28;20048;-78
2023/02/06 11:30:35;;;;;;;5.53;2.60;;;;;;;;;;10434883;28;20115;-74
2023/02/06 11:35:47;;;;;;;6.47;3.00;;;;;;;;;;10450322;28;20024;-75
2023/02/06 11:41:03;;;;;;;12.27;3.72;;;;;;;;;;10444617;28;20047;-73
2023/02/06 11:46:05;;;;;;;11.85;2.70;;;;;;;;;;10448047;28;20130;-75
2023/02/06 11:51:06;;;;;;;9.27;3.60;;;;;;;;;;10451329;28;20103;-75
2023/02/06 11:56:12;;;;;;;5.85;3.85;;;;;;;;;;10449743;28;20574;-73
2023/02/06 12:01:18;;;;;;;4.38;2.78;;;;;;;;;;10409978;28;20030;-73
2023/02/06 12:06:18;;;;;;;11.48;4.70;;;;;;;;;;10446815;28;20503;-77
2023/02/06 12:11:19;;;;;;;13.30;3.85;;;;;;;;;;10449343;28;20037;-73
2023/02/06 12:16:20;;;;;;;5.18;2.55;;;;;;;;;;10449160;28;20067;-74
2023/02/06 12:21:33;;;;;;;8.80;2.90;;;;;;;;;;10448734;28;20021;-74
2023/02/06 12:26:36;;;;;;;16.33;3.80;;;;;;;;;;10448821;28;20491;-77
2023/02/06 12:31:40;;;;;;;5.82;3.58;;;;;;;;;;10445630;28;20028;-71
2023/02/06 12:36:57;;;;;;;5.72;2.97;;;;;;;;;;10447055;28;20064;-75
2023/02/06 12:42:13;;;;;;;7.50;3.88;;;;;;;;;;10438320;28;20052;-74
2023/02/06 12:47:23;;;;;;;8.80;4.20;;;;;;;;;;10444221;28;20029;-73
2023/02/06 12:52:23;;;;;;;5.47;2.90;;;;;;;;;;10443268;28;20115;-73
2023/02/06 12:57:26;;;;;;;10.07;4.07;;;;;;;;;;10447694;28;20029;-74
2023/02/06 13:02:45;;;;;;;6.13;3.50;;;;;;;;;;10444925;28;20029;-73
2023/02/06 13:07:45;;;;;;;5.72;3.33;;;;;;;;;;10439546;28;20045;-72
2023/02/06 13:12:53;;;;;;;10.65;4.35;;;;;;;;;;10446564;28;20033;-74
2023/02/06 13:17:54;;;;;;;5.55;3.20;;;;;;;;;;10444996;28;20025;-73
2023/02/06 13:23:13;;;;;;;6.85;3.90;;;;;;;;;;10433434;28;20039;-77
2023/02/06 13:28:13;;;;;;;10.80;3.22;;;;;;;;;;10443922;28;20033;-78
2023/02/06 13:33:15;;;;;;;9.18;3.08;;;;;;;;;;10445855;28;20032;-77
2023/02/06 13:38:21;;;;;;;5.72;3.00;;;;;;;;;;10446399;28;20021;-77
2023/02/06 13:43:25;;;;;;;8.20;3.63;;;;;;;;;;10445822;28;20032;-74
2023/02/06 13:48:45;;;;;;;6.57;4.65;;;;;;;;;;10447569;28;20033;-77
2023/02/06 13:54:01;;;;;;;4.18;2.92;;;;;;;;;;10445650;28;20399;-73
2023/02/06 13:59:06;;;;;;;8.40;4.53;;;;;;;;;;10445718;28;20021;-72
2023/02/06 14:04:08;;;;;;;7.45;4.00;;;;;;;;;;10445608;28;20021;-76
2023/02/06 14:09:18;;;;;;;12.95;4.97;;;;;;;;;;10445523;28;20533;-74
2023/02/06 14:14:31;;;;;;;15.63;4.30;;;;;;;;;;10444926;28;20029;-75
2023/02/06 14:19:45;;;;;;;9.75;4.00;;;;;;;;;;10445195;28;20100;-73
2023/02/06 14:25:02;;;;;;;7.93;4.85;;;;;;;;;;10445700;28;20021;-79
2023/02/06 14:30:21;;;;;;;7.33;4.43;;;;;;;;;;10444699;28;20083;-74
2023/02/06 14:35:40;;;;;;;15.98;4.45;;;;;;;;;;10444335;28;20017;-81
2023/02/06 14:40:41;;;;;;;9.57;4.88;;;;;;;;;;10446189;28;20112;-73
2023/02/06 14:45:43;;;;;;;6.97;3.58;;;;;;;;;;10419882;28;20060;-74
2023/02/06 14:50:46;;;;;;;9.23;4.68;;;;;;;;;;10437996;28;20150;-73
2023/02/06 14:55:46;;;;;;;7.22;4.22;;;;;;;;;;10444311;28;20025;-81
2023/02/06 15:00:47;;;;;;;4.60;3.67;;;;;;;;;;10444096;28;20403;-74
2023/02/06 15:05:59;;;;;;;7.18;5.30;;;;;;;;;;10441834;28;20033;-74
2023/02/06 15:11:00;;;;;;;9.45;4.80;;;;;;;;;;10441177;28;20025;-75
2023/02/06 15:16:02;;;;;;;12.05;4.10;;;;;;;;;;10430829;28;20106;-78
2023/02/06 15:21:07;;;;;;;7.28;4.10;;;;;;;;;;10442560;28;20059;-74
2023/02/06 15:26:26;;;;;;;7.10;4.10;;;;;;;;;;10442976;28;20088;-73
2023/02/06 15:31:28;;;;;;;18.17;6.00;;;;;;;;;;10445526;28;20128;-74
2023/02/06 15:36:30;;;;;;;9.30;3.55;;;;;;;;;;10450419;28;20065;-77
2023/02/06 15:41:30;;;;;;;9.48;4.45;;;;;;;;;;10452202;28;20037;-79
2023/02/06 15:46:31;;;;;;;8.82;4.85;;;;;;;;;;10433578;28;20446;-74
2023/02/06 15:51:39;;;;;;;10.30;6.15;;;;;;;;;;10450329;28;20473;-73
2023/02/06 15:56:39;;;;;;;;;;;;;;;;;;10450748;28;20418;-76
2023/02/06 16:01:41;;;;;;;9.55;4.47;;;;;;;;;;10451631;28;19911;-74
2023/02/06 16:06:42;;;;;;;9.63;5.10;;;;;;;;;;10449224;28;20107;-80
2023/02/06 16:11:45;;;;;;;9.60;4.35;;;;;;;;;;10449358;28;20490;-73
2023/02/06 16:16:56;;;;;;;9.48;4.38;;;;;;;;;;10441343;28;20498;-74
2023/02/06 16:22:03;;;;;;;8.38;4.88;;;;;;;;;;10448897;28;20024;-73
2023/02/06 16:27:17;;;;;;;8.15;5.15;;;;;;;;;;10448842;28;20521;-74
2023/02/06 16:32:22;;;;;;;9.60;5.22;;;;;;;;;;10448894;28;20140;-75
2023/02/06 16:37:24;;;;;;;16.45;6.07;;;;;;;;;;10438027;28;20013;-77
2023/02/06 16:42:31;;;;;;;8.65;5.03;;;;;;;;;;10443077;28;20028;-76
2023/02/06 16:47:31;;;;;;;7.90;4.07;;;;;;;;;;10440596;28;20033;-73
2023/02/06 16:52:35;;;;;;;7.97;4.57;;;;;;;;;;10448134;28;20033;-73
2023/02/06 16:57:37;;;;;;;8.13;5.38;;;;;;;;;;10451316;28;20025;-72
2023/02/06 17:02:38;;;;;;;9.52;6.22;;;;;;;;;;10430567;28;20411;-77
2023/02/06 17:07:38;;;;;;;7.43;6.53;;;;;;;;;;10448468;28;20055;-75
2023/02/06 17:12:38;;;;;;;11.88;6.85;;;;;;;;;;10419742;28;20091;-74
2023/02/06 17:17:40;;;;;;;14.57;6.95;;;;;;;;;;10435485;28;20053;-75
2023/02/06 17:22:40;;;;;;;12.77;6.22;;;;;;;;;;10438567;28;20029;-73
2023/02/06 17:27:41;;;;;;;8.38;5.53;;;;;;;;;;10440093;28;20086;-73
2023/02/06 17:32:41;;;;;;;10.95;6.20;;;;;;;;;;10445286;28;20494;-73
2023/02/06 17:37:41;;;;;;;9.32;6.65;;;;;;;;;;10446248;28;20365;-74
2023/02/06 17:42:42;;;;;;;9.67;5.30;;;;;;;;;;10447723;28;20029;-73
2023/02/06 17:47:42;;;;;;;10.75;6.53;;;;;;;;;;10445467;28;20031;-74
2023/02/06 17:52:43;;;;;;;10.52;5.95;;;;;;;;;;10445245;28;20445;-75
2023/02/06 17:57:43;;;;;;;6.00;3.57;;;;;;;;;;10443736;28;20033;-72
2023/02/06 18:02:43;;;;;;;7.78;4.88;;;;;;;;;;10440346;28;20039;-72
2023/02/06 18:07:44;;;;;;;9.02;5.53;;;;;;;;;;10441144;28;20110;-73
2023/02/06 18:12:44;;;;;;;7.97;5.43;;;;;;;;;;10444702;28;20036;-74
2023/02/06 18:17:44;;;;;;;11.57;4.93;;;;;;;;;;10443967;28;20025;-71
2023/02/06 18:22:45;;;;;;;9.80;5.72;;;;;;;;;;10442490;28;20070;-74
2023/02/06 18:27:46;;;;;;;10.57;5.82;;;;;;;;;;10440377;28;20017;-74
2023/02/06 18:32:46;;;;;;;12.90;5.57;;;;;;;;;;10438007;28;20025;-74
2023/02/06 18:37:46;;;;;;;7.72;4.95;;;;;;;;;;10440227;28;20021;-73
2023/02/06 18:42:50;;;;;;;10.95;6.45;;;;;;;;;;10442152;28;20162;-73
2023/02/06 18:47:50;;;;;;;9.88;6.07;;;;;;;;;;10442357;28;20025;-70
2023/02/06 18:52:50;;;;;;;17.52;6.55;;;;;;;;;;10439760;28;20021;-74
2023/02/06 18:57:51;;;;;;;9.07;5.38;;;;;;;;;;10439244;28;20465;-74
2023/02/06 19:02:51;;;;;;;10.73;6.60;;;;;;;;;;10442817;28;20447;-73
2023/02/06 19:07:52;;;;;;;10.43;8.63;;;;;;;;;;10444975;28;20591;-74
2023/02/06 19:12:52;;;;;;;13.90;6.25;;;;;;;;;;10446251;28;20064;-74
2023/02/06 19:17:52;;;;;;;16.52;8.30;;;;;;;;;;10447654;28;21686;-75
2023/02/06 19:22:54;;;;;;;10.13;8.45;;;;;;;;;;10449839;28;20377;-75
2023/02/06 19:27:55;;;;;;;9.80;6.97;;;;;;;;;;10450002;28;20036;-74
2023/02/06 19:32:55;;;;;;;8.52;5.93;;;;;;;;;;10445887;28;20044;-73
2023/02/06 19:37:57;;;;;;;9.20;5.07;;;;;;;;;;10445836;28;20479;-73
2023/02/06 19:42:57;;;;;;;12.20;5.82;;;;;;;;;;10436278;28;20029;-75
2023/02/06 19:47:57;;;;;;;17.13;5.68;;;;;;;;;;10434452;28;20037;-74
2023/02/06 19:52:58;;;;;;;10.43;6.50;;;;;;;;;;10453435;28;20025;-74
2023/02/06 19:57:58;;;;;;;8.13;5.45;;;;;;;;;;10438812;28;20025;-75
2023/02/06 20:02:58;;;;;;;13.40;6.30;;;;;;;;;;10441374;28;20094;-75
2023/02/06 20:07:59;;;;;;;10.48;6.50;;;;;;;;;;10438197;28;20311;-73
2023/02/06 20:12:59;;;;;;;9.45;5.13;;;;;;;;;;10442770;28;20086;-75
2023/02/06 20:17:59;;;;;;;12.57;6.40;;;;;;;;;;10446080;28;20045;-76
2023/02/06 20:23:00;;;;;;;13.50;6.93;;;;;;;;;;10446355;28;20479;-75
2023/02/06 20:28:00;;;;;;;11.07;8.00;;;;;;;;;;10442150;28;20513;-76
2023/02/06 20:33:01;;;;;;;20.33;8.48;;;;;;;;;;10444764;28;20115;-74
2023/02/06 20:38:01;;;;;;;12.35;7.30;;;;;;;;;;10443339;28;20025;-75
2023/02/06 20:43:01;;;;;;;10.93;5.73;;;;;;;;;;10437885;28;20108;-73
2023/02/06 20:48:02;;;;;;;10.63;7.00;;;;;;;;;;10443450;28;20029;-74
2023/02/06 20:53:02;;;;;;;13.05;8.27;;;;;;;;;;10442574;28;20037;-73
2023/02/06 20:58:03;;;;;;;13.48;7.25;;;;;;;;;;10439184;28;20033;-77
2023/02/06 21:03:03;;;;;;;19.77;8.73;;;;;;;;;;10443388;28;20040;-74
2023/02/06 21:08:03;;;;;;;13.15;9.10;;;;;;;;;;10444510;28;20076;-74
2023/02/06 21:13:04;;;;;;;12.60;8.43;;;;;;;;;;10438037;28;20037;-74
2023/02/06 21:18:04;;;;;;;13.98;8.98;;;;;;;;;;10440200;28;20919;-73
2023/02/06 21:23:04;;;;;;;18.05;8.55;;;;;;;;;;10440622;28;20025;-74
2023/02/06 21:28:04;;;;;;;13.32;6.40;;;;;;;;;;10442710;28;20037;-74
2023/02/06 21:33:05;;;;;;;15.90;9.32;;;;;;;;;;10442545;28;20108;-73
2023/02/06 21:38:05;;;;;;;13.13;7.75;;;;;;;;;;10435060;28;20551;-73
2023/02/06 21:43:06;;;;;;;17.83;8.35;;;;;;;;;;10441748;28;20163;-76
2023/02/06 21:48:06;;;;;;;20.27;9.60;;;;;;;;;;10437667;28;20025;-74
2023/02/06 21:53:07;;;;;;;22.30;9.80;;;;;;;;;;10436170;28;20203;-74
2023/02/06 21:58:07;;;;;;;19.20;10.35;;;;;;;;;;10441370;28;20487;-74
2023/02/06 22:03:08;;;;;;;22.63;10.98;;;;;;;;;;10443949;28;20037;-73
2023/02/06 22:08:08;;;;;;;19.13;10.05;;;;;;;;;;10435521;28;20060;-74
2023/02/06 22:13:08;;;;;;;20.70;10.35;;;;;;;;;;10442651;28;20487;-72
2023/02/06 22:18:09;;;;;;;15.23;7.82;;;;;;;;;;10443835;28;20754;-73
2023/02/06 22:23:09;;;;;;;13.52;7.40;;;;;;;;;;10427160;28;20039;-74
2023/02/06 22:28:09;;;;;;;18.65;8.13;;;;;;;;;;10443585;28;20039;-74
2023/02/06 22:33:09;;;;;;;12.32;7.85;;;;;;;;;;10443813;28;20518;-73
2023/02/06 22:38:10;;;;;;;13.80;10.10;;;;;;;;;;10448064;28;20051;-73
2023/02/06 22:43:10;;;;;;;14.60;7.65;;;;;;;;;;10451563;28;20021;-74
2023/02/06 22:48:11;;;;;;;17.05;9.20;;;;;;;;;;10451362;28;20567;-76
2023/02/06 22:53:30;;;;;;;11.57;8.53;;;;;;;;;;10449746;28;20033;-74
2023/02/06 22:58:30;;;;;;;10.45;6.50;;;;;;;;;;10446008;28;20458;-74
2023/02/06 23:03:31;;;;;;;11.52;7.10;;;;;;;;;;10451267;28;20075;-74
2023/02/06 23:08:32;;;;;;;13.67;6.83;;;;;;;;;;10434271;28;20045;-74
2023/02/06 23:13:32;;;;;;;11.35;8.30;;;;;;;;;;10450440;28;20091;-78
2023/02/06 23:18:33;;;;;;;13.68;8.90;;;;;;;;;;10445529;28;20024;-74
2023/02/06 23:23:33;;;;;;;12.80;7.20;;;;;;;;;;10449869;28;20487;-74
2023/02/06 23:28:34;;;;;;;14.43;8.18;;;;;;;;;;10449517;28;20017;-74
2023/02/06 23:33:34;;;;;;;14.52;8.23;;;;;;;;;;10447235;28;20045;-78
2023/02/06 23:38:34;;;;;;;12.57;7.40;;;;;;;;;;10451658;28;20021;-73
2023/02/06 23:43:35;;;;;;;17.42;7.93;;;;;;;;;;10449892;28;20723;-71
2023/02/06 23:48:35;;;;;;;13.90;6.87;;;;;;;;;;10449459;28;20406;-73
2023/02/06 23:53:35;;;;;;;11.23;6.40;;;;;;;;;;10419245;28;20275;-74
2023/02/06 23:58:36;;;;;;;15.65;6.13;;;;;;;;;;10449066;28;20580;-74
